Time;durP1;ratioP1;P1;durP2;ratioP2;P2;SDS_P1;SDS_P2;PMS_P1;PMS_P2;Temp;Humidity;BMP_temperature;BMP_pressure;BME280_temperature;BME280_humidity;BME280_pressure;Samples;Min_cycle;Max_cycle;Signal;HPM_P1;HPM_P2
2022/04/04 00:00:40;;;;;;;11.90;7.07;;;-0.60;99.90;;;;;;5092660;28;20199;-68
2022/04/04 00:03:07;;;;;;;17.53;7.13;;;-0.60;99.90;;;;;;5091028;28;20177;-69
2022/04/04 00:05:32;;;;;;;12.13;6.53;;;-0.60;99.90;;;;;;5092506;28;20245;-68
2022/04/04 00:07:58;;;;;;;11.23;6.53;;;-0.60;99.90;;;;;;5091622;28;20537;-69
2022/04/04 00:10:24;;;;;;;16.97;6.70;;;-0.60;99.90;;;;;;5092170;28;20183;-69
2022/04/04 00:12:49;;;;;;;15.20;7.43;;;-0.60;99.90;;;;;;5090323;28;20184;-69
2022/04/04 00:15:15;;;;;;;11.63;6.40;;;-0.70;99.90;;;;;;5079981;28;20570;-69
2022/04/04 00:17:41;;;;;;;13.63;7.13;;;-0.70;99.90;;;;;;5072365;28;20577;-66
2022/04/04 00:20:08;;;;;;;14.37;6.63;;;-0.80;99.90;;;;;;5071602;28;20182;-69
2022/04/04 00:22:34;;;;;;;12.87;6.93;;;-0.80;99.90;;;;;;5053231;28;20279;-70
2022/04/04 00:25:00;;;;;;;14.27;6.87;;;-0.90;99.90;;;;;;5070270;28;20207;-68
2022/04/04 00:27:26;;;;;;;11.37;6.33;;;-0.90;99.90;;;;;;5072240;28;20213;-69
2022/04/04 00:29:52;;;;;;;14.90;7.57;;;-0.90;99.90;;;;;;5071492;28;20505;-69
2022/04/04 00:32:18;;;;;;;13.07;6.67;;;-0.80;99.90;;;;;;5071825;28;20195;-69
2022/04/04 00:34:43;;;;;;;13.93;6.77;;;-0.80;99.90;;;;;;5071310;28;20235;-67
2022/04/04 00:37:09;;;;;;;14.30;7.03;;;-0.80;99.90;;;;;;5071718;28;20550;-69
2022/04/04 00:39:35;;;;;;;9.90;5.83;;;-0.80;99.90;;;;;;5071399;28;20292;-70
2022/04/04 00:42:01;;;;;;;12.13;6.20;;;-0.80;99.90;;;;;;5071890;28;20562;-68
2022/04/04 00:44:27;;;;;;;21.17;6.97;;;-0.70;99.90;;;;;;5071848;28;20181;-68
2022/04/04 00:46:53;;;;;;;13.07;6.33;;;-0.70;99.90;;;;;;5070328;28;20216;-70
2022/04/04 00:49:18;;;;;;;11.33;6.10;;;-0.70;99.90;;;;;;5072087;28;20188;-67
2022/04/04 00:51:44;;;;;;;12.50;6.10;;;-0.60;99.90;;;;;;5071319;28;20204;-65
2022/04/04 00:54:11;;;;;;;10.53;5.90;;;-0.60;99.90;;;;;;5071685;28;20656;-69
2022/04/04 00:56:38;;;;;;;15.90;7.40;;;-0.70;99.90;;;;;;5070242;28;20496;-68
2022/04/04 00:59:05;;;;;;;12.77;6.80;;;-0.80;99.90;;;;;;5071056;28;20986;-68
2022/04/04 01:01:32;;;;;;;13.30;7.30;;;-0.80;99.90;;;;;;5071609;28;20189;-68
2022/04/04 01:03:58;;;;;;;9.73;6.20;;;-0.90;99.90;;;;;;5071111;28;20648;-68
2022/04/04 01:06:24;;;;;;;12.00;5.90;;;-0.90;99.90;;;;;;5071452;28;20272;-68
2022/04/04 01:08:49;;;;;;;13.97;6.53;;;-0.90;99.90;;;;;;5071489;28;20185;-68
2022/04/04 01:11:15;;;;;;;11.80;6.47;;;-0.90;99.90;;;;;;5071202;28;20268;-68
2022/04/04 01:13:48;;;;;;;12.67;5.93;;;-0.90;99.90;;;;;;5071653;28;20282;-68
2022/04/04 01:16:14;;;;;;;13.70;6.27;;;-0.90;99.90;;;;;;5071267;28;20252;-69
2022/04/04 01:18:40;;;;;;;11.80;6.63;;;-0.90;99.90;;;;;;5071600;28;20178;-68
2022/04/04 01:21:06;;;;;;;12.43;6.83;;;-0.90;99.90;;;;;;5072664;28;20185;-68
2022/04/04 01:23:40;;;;;;;11.80;6.63;;;-0.90;99.90;;;;;;5075210;28;20260;-68
2022/04/04 01:26:07;;;;;;;21.10;7.53;;;-0.90;99.90;;;;;;5074654;28;20169;-68
2022/04/04 01:28:33;;;;;;;9.63;5.90;;;-0.90;99.90;;;;;;5073866;28;20185;-68
2022/04/04 01:30:59;;;;;;;14.50;6.67;;;-1.00;99.90;;;;;;5073276;28;20185;-68
2022/04/04 01:33:25;;;;;;;9.67;6.00;;;-1.00;99.90;;;;;;5073439;28;20191;-68
2022/04/04 01:35:52;;;;;;;13.80;6.37;;;-1.10;99.90;;;;;;5074719;28;20188;-67
2022/04/04 01:38:18;;;;;;;14.53;6.40;;;-1.20;99.90;;;;;;5075036;28;20192;-67
2022/04/04 01:40:43;;;;;;;14.23;7.00;;;-1.20;99.90;;;;;;5074645;28;20538;-67
2022/04/04 01:43:09;;;;;;;12.83;6.30;;;-1.20;99.90;;;;;;5074683;28;20184;-68
2022/04/04 01:48:20;;;;;;;15.80;6.50;;;-1.30;99.90;;;;;;5074916;28;20168;-68
2022/04/04 01:50:45;;;;;;;13.17;7.20;;;-1.30;99.90;;;;;;5074676;28;20184;-68
2022/04/04 01:53:26;;;;;;;12.93;6.07;;;-1.40;99.90;;;;;;5073035;28;20235;-68
2022/04/04 01:55:54;;;;;;;10.97;6.20;;;-1.40;99.90;;;;;;5074116;28;20211;-67
2022/04/04 01:58:20;;;;;;;12.57;6.67;;;-1.40;99.90;;;;;;5074575;28;20286;-67
2022/04/04 02:00:46;;;;;;;11.97;6.90;;;-1.30;99.90;;;;;;5073096;28;20275;-67
2022/04/04 02:03:12;;;;;;;12.10;6.40;;;-1.40;99.90;;;;;;5074107;28;20265;-67
2022/04/04 02:05:38;;;;;;;12.47;6.83;;;-1.40;99.90;;;;;;5074354;28;20209;-66
2022/04/04 02:08:04;;;;;;;11.00;6.23;;;-1.40;99.90;;;;;;5073932;28;20723;-66
2022/04/04 02:10:31;;;;;;;13.67;6.67;;;-1.40;99.90;;;;;;5074022;28;20714;-67
2022/04/04 02:12:58;;;;;;;12.87;6.80;;;-1.50;99.90;;;;;;5073977;28;20193;-66
2022/04/04 02:15:23;;;;;;;14.70;7.17;;;-1.50;99.90;;;;;;5074290;28;20211;-67
2022/04/04 02:17:50;;;;;;;11.80;6.83;;;-1.60;99.90;;;;;;5073656;28;20621;-65
2022/04/04 02:20:16;;;;;;;14.77;6.90;;;-1.60;99.90;;;;;;5074075;28;20339;-66
2022/04/04 02:22:42;;;;;;;16.03;8.13;;;-1.50;99.90;;;;;;5074146;28;20680;-66
2022/04/04 02:25:08;;;;;;;13.47;6.97;;;-1.60;99.90;;;;;;5073657;28;20246;-65
2022/04/04 02:27:34;;;;;;;15.10;7.80;;;-1.70;99.90;;;;;;5073641;28;20636;-66
2022/04/04 02:30:00;;;;;;;12.70;6.23;;;-1.60;99.90;;;;;;5073498;28;20231;-66
2022/04/04 02:32:26;;;;;;;11.87;6.83;;;-1.60;99.90;;;;;;5072274;28;20176;-67
2022/04/04 02:34:52;;;;;;;13.67;7.47;;;-1.60;99.90;;;;;;5073198;28;20240;-66
2022/04/04 02:37:18;;;;;;;12.47;6.57;;;-1.70;99.90;;;;;;5073903;28;20189;-67
2022/04/04 02:39:44;;;;;;;18.40;7.77;;;-1.60;99.90;;;;;;5073489;28;20580;-68
2022/04/04 02:42:10;;;;;;;14.80;6.27;;;-1.60;99.90;;;;;;5073054;28;20184;-66
2022/04/04 02:44:36;;;;;;;13.47;6.93;;;-1.60;99.90;;;;;;5072071;28;20245;-66
2022/04/04 02:47:02;;;;;;;11.33;6.50;;;-1.70;99.90;;;;;;5072955;28;20268;-66
2022/04/04 02:49:30;;;;;;;9.07;4.93;;;-1.70;99.90;;;;;;5073745;28;20180;-66
2022/04/04 02:51:57;;;;;;;13.33;7.10;;;-1.60;99.90;;;;;;5073226;28;20574;-65
2022/04/04 02:54:23;;;;;;;14.70;6.07;;;-1.60;99.90;;;;;;5073317;28;20216;-67
2022/04/04 02:56:49;;;;;;;18.00;7.50;;;-1.60;99.90;;;;;;5073060;28;20271;-65
2022/04/04 02:59:15;;;;;;;13.53;6.97;;;-1.60;99.90;;;;;;5071621;28;20267;-65
2022/04/04 03:01:48;;;;;;;15.33;7.50;;;-1.70;99.90;;;;;;5073126;28;20212;-65
2022/04/04 03:04:17;;;;;;;12.60;6.20;;;-1.70;99.90;;;;;;5071373;28;20210;-65
2022/04/04 03:06:44;;;;;;;11.37;6.43;;;-1.80;99.90;;;;;;5071589;28;20547;-65
2022/04/04 03:09:10;;;;;;;15.60;7.53;;;-1.80;99.90;;;;;;5072839;28;20172;-65
2022/04/04 03:11:36;;;;;;;28.10;9.40;;;-1.90;99.90;;;;;;5073137;28;20211;-66
2022/04/04 03:14:02;;;;;;;13.40;7.13;;;-2.00;99.90;;;;;;5072472;28;20672;-65
2022/04/04 03:16:28;;;;;;;13.03;7.33;;;-2.00;99.90;;;;;;5071517;28;20192;-65
2022/04/04 03:18:54;;;;;;;15.43;7.13;;;-2.10;99.90;;;;;;5071470;28;20188;-65
2022/04/04 03:21:21;;;;;;;17.47;9.03;;;-2.20;99.90;;;;;;5071438;28;20189;-65
2022/04/04 03:23:46;;;;;;;15.83;7.63;;;-2.20;99.90;;;;;;5072535;28;20652;-65
2022/04/04 03:26:12;;;;;;;15.33;7.87;;;-2.20;99.90;;;;;;5072225;28;20176;-65
2022/04/04 03:28:39;;;;;;;14.50;7.80;;;-2.20;99.90;;;;;;5072668;28;20249;-66
2022/04/04 03:31:05;;;;;;;17.53;8.00;;;-2.20;99.90;;;;;;5070800;28;20299;-66
2022/04/04 03:33:32;;;;;;;16.17;7.53;;;-2.20;99.90;;;;;;5072439;28;20201;-66
2022/04/04 03:35:58;;;;;;;15.37;7.57;;;-2.20;99.90;;;;;;5072444;28;20183;-68
2022/04/04 03:38:25;;;;;;;19.07;8.70;;;-2.10;99.90;;;;;;5072250;28;20175;-66
2022/04/04 03:40:52;;;;;;;19.87;8.60;;;-2.10;99.90;;;;;;5071081;28;20288;-67
2022/04/04 03:43:17;;;;;;;14.20;7.10;;;-2.20;99.90;;;;;;5071558;28;20169;-65
2022/04/04 03:45:43;;;;;;;12.70;7.50;;;-2.10;99.90;;;;;;5072392;28;20579;-65
2022/04/04 03:48:09;;;;;;;17.50;8.10;;;-2.10;99.90;;;;;;5071961;28;20650;-66
2022/04/04 03:50:35;;;;;;;15.50;7.93;;;-2.10;99.90;;;;;;5072131;28;20670;-65
2022/04/04 03:53:03;;;;;;;19.13;8.13;;;-2.20;99.90;;;;;;5071352;28;20177;-66
2022/04/04 03:55:36;;;;;;;18.67;7.80;;;-2.10;99.90;;;;;;5071923;28;20219;-67
2022/04/04 03:58:04;;;;;;;20.67;8.70;;;-2.10;99.90;;;;;;5071332;28;20171;-65
2022/04/04 04:00:30;;;;;;;19.60;8.43;;;-2.10;99.90;;;;;;5070307;28;20179;-66
2022/04/04 04:02:56;;;;;;;15.20;7.50;;;-2.10;99.90;;;;;;5071871;28;20194;-65
2022/04/04 04:05:23;;;;;;;15.03;8.17;;;-2.10;99.90;;;;;;5071810;28;20262;-66
2022/04/04 04:07:49;;;;;;;16.77;9.73;;;-2.10;99.90;;;;;;5071963;28;20180;-66
2022/04/04 04:10:15;;;;;;;19.33;8.83;;;-2.10;99.90;;;;;;5071605;28;20196;-67
2022/04/04 04:12:42;;;;;;;19.43;8.37;;;-2.10;99.90;;;;;;5071674;28;20280;-67
2022/04/04 04:15:12;;;;;;;16.90;8.17;;;-2.10;99.90;;;;;;5071098;28;20208;-66
2022/04/04 04:17:38;;;;;;;9.47;4.67;;;-2.10;99.90;;;;;;5071613;28;20184;-67
2022/04/04 04:20:20;;;;;;;15.10;7.17;;;-2.00;99.90;;;;;;5071454;28;20258;-66
2022/04/04 04:22:55;;;;;;;15.10;7.57;;;-1.90;99.90;;;;;;5070622;28;20187;-67
2022/04/04 04:25:24;;;;;;;15.30;7.47;;;-1.90;99.90;;;;;;5071519;28;20194;-67
2022/04/04 04:27:51;;;;;;;14.17;7.43;;;-1.90;99.90;;;;;;5069837;28;20186;-67
2022/04/04 04:30:17;;;;;;;17.83;8.57;;;-1.90;99.90;;;;;;5070470;28;20314;-67
2022/04/04 04:32:45;;;;;;;16.60;8.90;;;-1.80;99.90;;;;;;5069406;28;20222;-68
2022/04/04 04:35:11;;;;;;;17.63;9.17;;;-1.80;99.90;;;;;;5070305;28;20678;-70
2022/04/04 04:37:37;;;;;;;16.77;8.70;;;-1.70;99.90;;;;;;5071194;28;20544;-68
2022/04/04 04:40:05;;;;;;;19.47;9.70;;;-1.60;99.90;;;;;;5070211;28;20652;-65
2022/04/04 04:42:33;;;;;;;17.13;8.40;;;-1.50;99.90;;;;;;5069271;28;20184;-69
2022/04/04 04:44:59;;;;;;;19.07;9.17;;;-1.50;99.90;;;;;;5070185;28;20192;-68
2022/04/04 04:47:25;;;;;;;19.17;8.97;;;-1.40;99.90;;;;;;5069205;28;20185;-68
2022/04/04 04:49:51;;;;;;;17.20;8.87;;;-1.30;99.90;;;;;;5070675;28;20180;-68
2022/04/04 04:52:16;;;;;;;18.63;8.83;;;-1.30;99.90;;;;;;5070078;28;20193;-67
2022/04/04 04:54:45;;;;;;;19.47;9.10;;;-1.20;99.90;;;;;;5068569;28;20216;-69
2022/04/04 04:57:11;;;;;;;28.23;10.30;;;-1.20;99.90;;;;;;5073283;28;20643;-63
2022/04/04 04:59:36;;;;;;;23.63;9.87;;;-1.10;99.90;;;;;;5073414;28;20182;-63
2022/04/04 05:02:02;;;;;;;15.63;9.70;;;-1.00;99.90;;;;;;5073781;28;20193;-67
2022/04/04 05:04:29;;;;;;;26.40;10.63;;;-1.00;99.90;;;;;;5073072;28;20566;-60
2022/04/04 05:06:54;;;;;;;22.33;9.23;;;-0.90;99.90;;;;;;5083579;28;20238;-61
2022/04/04 05:09:20;;;;;;;28.93;12.00;;;-0.90;99.90;;;;;;5064470;28;20568;-63
2022/04/04 05:11:46;;;;;;;19.10;10.00;;;-0.70;99.90;;;;;;5082658;28;20189;-63
2022/04/04 05:14:18;;;;;;;30.87;10.60;;;-0.70;99.90;;;;;;5064241;28;20609;-61
2022/04/04 05:16:45;;;;;;;19.77;10.30;;;-0.60;99.90;;;;;;5082497;28;20641;-71
2022/04/04 05:19:12;;;;;;;44.00;10.70;;;-0.60;99.90;;;;;;5081435;28;20185;-73
2022/04/04 05:21:39;;;;;;;25.63;10.43;;;-0.50;99.90;;;;;;5083576;28;20184;-72
2022/04/04 05:24:05;;;;;;;23.50;10.13;;;-0.40;99.90;;;;;;5083088;28;20215;-72
2022/04/04 05:26:32;;;;;;;25.10;12.43;;;-0.40;99.90;;;;;;5082082;28;20258;-73
2022/04/04 05:28:57;;;;;;;20.03;10.10;;;-0.40;99.90;;;;;;5082249;28;20226;-73
2022/04/04 05:31:23;;;;;;;30.87;10.33;;;-0.40;99.90;;;;;;5080873;28;20189;-73
2022/04/04 05:33:50;;;;;;;28.97;10.53;;;-0.30;99.90;;;;;;5081476;28;20241;-71
2022/04/04 05:36:15;;;;;;;20.30;8.77;;;-0.10;99.90;;;;;;5081350;28;20542;-72
2022/04/04 05:38:41;;;;;;;15.07;7.60;;;0.00;99.90;;;;;;5081252;28;20189;-72
2022/04/04 05:41:07;;;;;;;14.63;8.10;;;0.00;99.90;;;;;;5081409;28;20247;-71
2022/04/04 05:43:33;;;;;;;14.50;7.67;;;0.00;99.90;;;;;;5080606;28;20188;-72
2022/04/04 05:45:58;;;;;;;20.97;7.60;;;0.00;99.90;;;;;;5080490;28;20203;-69
2022/04/04 05:48:27;;;;;;;18.40;8.00;;;0.10;99.90;;;;;;5080704;28;20192;-70
2022/04/04 05:50:53;;;;;;;17.03;7.10;;;0.20;99.90;;;;;;5080724;28;20189;-71
2022/04/04 05:53:19;;;;;;;16.17;9.17;;;0.30;99.90;;;;;;5059980;28;20196;-71
2022/04/04 05:55:45;;;;;;;16.43;7.60;;;0.30;99.90;;;;;;5081834;28;20254;-74
2022/04/04 05:58:12;;;;;;;15.50;8.30;;;0.40;99.90;;;;;;5081446;28;20193;-74
2022/04/04 06:00:37;;;;;;;16.20;6.40;;;0.50;99.90;;;;;;5081906;28;20192;-73
2022/04/04 06:03:03;;;;;;;13.60;7.67;;;0.50;99.90;;;;;;5081446;28;20510;-73
2022/04/04 06:05:30;;;;;;;19.30;7.10;;;0.50;99.90;;;;;;5079066;28;20196;-74
2022/04/04 06:07:56;;;;;;;10.87;6.67;;;0.50;99.90;;;;;;5081554;28;20185;-72
2022/04/04 06:10:21;;;;;;;14.27;6.97;;;0.50;99.90;;;;;;5081271;28;20293;-72
2022/04/04 06:12:47;;;;;;;12.50;6.03;;;0.50;99.90;;;;;;5082529;28;20199;-72
2022/04/04 06:15:15;;;;;;;15.77;7.63;;;0.60;99.90;;;;;;5080768;28;20197;-72
2022/04/04 06:17:43;;;;;;;11.50;6.73;;;0.80;99.90;;;;;;5080856;28;20232;-70
2022/04/04 06:20:10;;;;;;;15.03;7.60;;;0.70;99.90;;;;;;5077463;28;20251;-72
2022/04/04 06:22:36;;;;;;;12.17;6.27;;;0.70;99.90;;;;;;5090304;28;20188;-73
2022/04/04 06:25:04;;;;;;;11.40;6.07;;;0.70;99.90;;;;;;5051489;28;20255;-72
2022/04/04 06:27:30;;;;;;;15.57;6.73;;;0.60;99.90;;;;;;5078987;28;20253;-73
2022/04/04 06:29:57;;;;;;;12.33;7.17;;;0.60;99.90;;;;;;5072426;28;20196;-71
2022/04/04 06:32:26;;;;;;;14.80;6.63;;;0.70;99.90;;;;;;5091441;28;20199;-75
2022/04/04 06:34:52;;;;;;;9.70;5.73;;;0.70;99.90;;;;;;5069966;28;20233;-71
2022/04/04 06:37:17;;;;;;;17.67;7.50;;;0.80;99.90;;;;;;5080159;28;20680;-75
2022/04/04 06:39:43;;;;;;;12.73;7.00;;;0.90;99.90;;;;;;5087131;28;20189;-80
2022/04/04 06:42:09;;;;;;;16.07;6.87;;;1.00;99.90;;;;;;5091038;28;20690;-79
2022/04/04 06:44:36;;;;;;;13.67;6.73;;;1.10;99.90;;;;;;5079344;28;20205;-79
2022/04/04 06:47:02;;;;;;;12.73;5.77;;;1.10;99.90;;;;;;5072343;28;20186;-77
2022/04/04 06:49:28;;;;;;;12.33;6.73;;;1.00;99.90;;;;;;5071011;28;20178;-75
2022/04/04 06:51:55;;;;;;;10.87;5.93;;;1.00;99.90;;;;;;5070164;28;20221;-77
2022/04/04 06:54:21;;;;;;;15.37;6.23;;;1.00;99.50;;;;;;5071241;28;20213;-75
2022/04/04 06:56:49;;;;;;;11.67;4.43;;;1.20;99.60;;;;;;5071605;28;20784;-78
2022/04/04 06:59:18;;;;;;;13.40;5.87;;;1.30;98.30;;;;;;5070622;28;20174;-77
2022/04/04 07:01:45;;;;;;;11.57;5.87;;;1.30;97.80;;;;;;5069637;28;20182;-77
2022/04/04 07:04:11;;;;;;;12.70;5.47;;;1.40;98.10;;;;;;5069469;28;20191;-77
2022/04/04 07:06:37;;;;;;;12.77;6.20;;;1.50;98.30;;;;;;5072554;28;20218;-80
2022/04/04 07:09:03;;;;;;;12.57;5.70;;;1.70;97.80;;;;;;5073713;28;20629;-74
2022/04/04 07:11:29;;;;;;;13.67;6.23;;;1.70;96.60;;;;;;5073134;28;20182;-80
2022/04/04 07:13:56;;;;;;;9.40;5.23;;;1.70;96.80;;;;;;5072955;28;20255;-80
2022/04/04 07:16:22;;;;;;;13.57;5.70;;;1.80;96.90;;;;;;5072511;28;20182;-81
2022/04/04 07:18:48;;;;;;;15.40;6.50;;;2.00;96.60;;;;;;5182792;22;20239;-78
2022/04/04 07:21:15;;;;;;;11.10;5.93;;;2.10;96.60;;;;;;5012640;28;20185;-79
2022/04/04 07:23:41;;;;;;;10.53;5.73;;;2.10;96.30;;;;;;5012715;28;20204;-80
2022/04/04 07:26:07;;;;;;;13.63;6.30;;;2.30;96.30;;;;;;5012969;28;20227;-78
2022/04/04 07:28:33;;;;;;;13.10;6.13;;;2.30;96.10;;;;;;5012987;28;20178;-80
2022/04/04 07:31:00;;;;;;;15.50;6.90;;;2.30;96.10;;;;;;5013148;28;20189;-79
2022/04/04 07:33:27;;;;;;;13.10;6.53;;;2.40;96.10;;;;;;5011868;28;20194;-78
2022/04/04 07:35:53;;;;;;;11.60;6.60;;;2.50;96.00;;;;;;5012523;28;20267;-79
2022/04/04 07:38:19;;;;;;;11.73;6.63;;;2.80;96.20;;;;;;5011170;28;20580;-77
2022/04/04 07:40:44;;;;;;;9.03;5.40;;;3.00;95.80;;;;;;5012222;28;20587;-79
2022/04/04 07:43:10;;;;;;;14.37;6.87;;;3.20;95.30;;;;;;5010861;28;20184;-80
2022/04/04 07:45:36;;;;;;;16.17;6.47;;;3.30;95.50;;;;;;5013123;28;20194;-82
2022/04/04 07:48:03;;;;;;;10.40;6.47;;;3.50;95.00;;;;;;5012957;28;20249;-81
2022/04/04 07:50:30;;;;;;;12.80;6.67;;;3.60;94.30;;;;;;5012224;28;20190;-78
2022/04/04 07:52:56;;;;;;;9.07;5.63;;;3.70;94.50;;;;;;5012921;28;20272;-79
2022/04/04 07:55:22;;;;;;;16.77;7.13;;;3.70;93.80;;;;;;5012317;28;20215;-79
2022/04/04 07:57:48;;;;;;;12.53;5.67;;;3.70;94.00;;;;;;5012391;28;20325;-79
2022/04/04 08:00:17;;;;;;;17.67;6.10;;;3.80;93.80;;;;;;5012129;28;20274;-79
2022/04/04 08:02:43;;;;;;;11.43;5.87;;;3.70;93.90;;;;;;5012233;28;20186;-79
2022/04/04 08:05:09;;;;;;;11.00;6.10;;;3.90;93.70;;;;;;5012198;28;20691;-79
2022/04/04 08:07:36;;;;;;;12.27;5.87;;;4.00;93.30;;;;;;5011506;28;20187;-78
2022/04/04 08:10:02;;;;;;;14.93;6.37;;;3.90;93.40;;;;;;5011724;28;20347;-79
2022/04/04 08:12:29;;;;;;;11.53;6.13;;;3.90;93.00;;;;;;5011790;28;20527;-80
2022/04/04 08:14:55;;;;;;;11.10;6.30;;;3.80;93.20;;;;;;5011896;28;20238;-77
2022/04/04 08:17:21;;;;;;;14.80;6.90;;;3.80;92.90;;;;;;5011515;28;20187;-78
2022/04/04 08:19:48;;;;;;;15.20;7.63;;;3.90;93.30;;;;;;5009972;28;20259;-79
2022/04/04 08:22:14;;;;;;;15.93;6.63;;;4.00;93.30;;;;;;5011750;28;20308;-79
2022/04/04 08:24:41;;;;;;;13.87;6.83;;;4.20;93.30;;;;;;5013695;28;20651;-76
2022/04/04 08:27:09;;;;;;;10.27;5.97;;;4.40;92.90;;;;;;5011950;28;20195;-78
2022/04/04 08:29:35;;;;;;;11.67;6.57;;;4.50;92.10;;;;;;5011571;28;20259;-78
2022/04/04 08:32:02;;;;;;;11.47;5.80;;;4.30;92.30;;;;;;5012557;28;20187;-78
2022/04/04 08:34:28;;;;;;;14.63;5.87;;;4.40;92.40;;;;;;5012695;28;20283;-79
2022/04/04 08:36:54;;;;;;;12.70;6.20;;;4.40;92.50;;;;;;5015802;28;20186;-80
2022/04/04 08:39:20;;;;;;;16.03;7.50;;;4.20;92.40;;;;;;5031458;28;20171;-79
2022/04/04 08:41:46;;;;;;;14.30;6.67;;;4.30;93.10;;;;;;5031405;28;20239;-77
2022/04/04 08:44:15;;;;;;;14.50;6.87;;;4.60;92.80;;;;;;4996277;28;20187;-79
2022/04/04 08:46:42;;;;;;;54.67;9.93;;;5.10;92.60;;;;;;5031251;28;20253;-81
2022/04/04 08:49:08;;;;;;;15.90;6.40;;;5.70;92.00;;;;;;5031186;28;20189;-79
2022/04/04 08:51:35;;;;;;;40.83;8.60;;;5.90;91.40;;;;;;5012531;28;20620;-80
2022/04/04 08:54:02;;;;;;;27.20;9.10;;;6.20;91.00;;;;;;5031337;28;20238;-79
2022/04/04 08:56:28;;;;;;;19.23;7.13;;;6.40;90.50;;;;;;5031328;28;20199;-80
2022/04/04 08:58:55;;;;;;;16.07;6.40;;;6.20;90.00;;;;;;5031120;28;20560;-80
2022/04/04 09:01:23;;;;;;;17.63;7.00;;;6.30;90.10;;;;;;5030461;28;20572;-78
2022/04/04 09:03:59;;;;;;;22.03;7.77;;;6.10;89.90;;;;;;5031681;28;20269;-79
2022/04/04 09:06:28;;;;;;;20.30;7.93;;;6.00;90.00;;;;;;5031277;28;20254;-79
2022/04/04 09:08:55;;;;;;;20.50;8.47;;;5.50;90.70;;;;;;5014372;28;20184;-79
2022/04/04 09:11:21;;;;;;;12.80;6.27;;;5.30;90.90;;;;;;5015315;28;20571;-80
2022/04/04 09:14:06;;;;;;;13.23;6.23;;;5.30;91.10;;;;;;5033223;28;20199;-78
2022/04/04 09:16:32;;;;;;;18.07;6.97;;;5.30;91.10;;;;;;5031010;28;20179;-78
2022/04/04 09:18:58;;;;;;;16.70;7.00;;;5.20;91.40;;;;;;5031065;28;20692;-78
2022/04/04 09:21:24;;;;;;;24.33;9.23;;;5.30;91.60;;;;;;5011196;28;20328;-74
2022/04/04 09:23:59;;;;;;;12.77;6.27;;;5.40;91.50;;;;;;5011711;28;20203;-79
2022/04/04 09:26:43;;;;;;;10.97;6.47;;;5.60;91.30;;;;;;4992650;28;20376;-78
2022/04/04 09:29:20;;;;;;;15.87;6.70;;;5.80;90.90;;;;;;5011431;28;20166;-80
2022/04/04 09:31:53;;;;;;;10.53;6.67;;;6.00;90.50;;;;;;4993635;28;20183;-78
2022/04/04 09:34:19;;;;;;;14.20;6.63;;;6.10;89.80;;;;;;4993385;28;20211;-81
2022/04/04 09:36:46;;;;;;;21.53;7.00;;;6.30;90.10;;;;;;5009213;28;20192;-78
2022/04/04 09:39:15;;;;;;;15.70;7.80;;;6.60;90.40;;;;;;5010725;28;20538;-72
2022/04/04 09:41:41;;;;;;;29.83;9.47;;;6.90;90.20;;;;;;5012414;28;20243;-77
2022/04/04 09:44:08;;;;;;;21.33;9.97;;;7.10;89.30;;;;;;5014816;28;20185;-78
2022/04/04 09:46:42;;;;;;;14.40;7.73;;;7.20;87.30;;;;;;4996866;28;20257;-78
2022/04/04 09:49:10;;;;;;;20.33;8.03;;;6.90;88.60;;;;;;5013190;28;20336;-78
2022/04/04 09:51:45;;;;;;;25.03;8.40;;;7.10;89.20;;;;;;5012416;28;20175;-80
2022/04/04 09:54:14;;;;;;;17.30;7.67;;;7.30;89.50;;;;;;5014059;28;20198;-78
2022/04/04 09:56:41;;;;;;;16.57;7.90;;;7.70;87.90;;;;;;5014189;28;20211;-79
2022/04/04 09:59:10;;;;;;;12.17;6.83;;;7.80;86.40;;;;;;5013791;28;20218;-78
2022/04/04 10:01:37;;;;;;;24.77;8.57;;;6.80;86.60;;;;;;5013392;28;20538;-77
2022/04/04 10:04:06;;;;;;;18.50;8.30;;;6.70;89.00;;;;;;5013751;28;20183;-79
2022/04/04 10:06:34;;;;;;;25.93;9.07;;;6.70;89.40;;;;;;5015021;28;20634;-78
2022/04/04 10:09:01;;;;;;;26.27;8.00;;;6.90;89.30;;;;;;5012538;28;20642;-77
2022/04/04 10:11:30;;;;;;;19.70;7.33;;;6.50;90.00;;;;;;5014003;28;20195;-78
2022/04/04 10:13:57;;;;;;;28.70;8.77;;;6.50;90.10;;;;;;5014199;28;20191;-80
2022/04/04 10:16:24;;;;;;;12.37;6.53;;;6.70;90.00;;;;;;5012252;28;20184;-78
2022/04/04 10:19:00;;;;;;;19.17;8.13;;;7.00;90.10;;;;;;5014160;28;20194;-75
2022/04/04 10:21:26;;;;;;;26.00;10.50;;;7.60;90.00;;;;;;5013166;28;20333;-78
2022/04/04 10:23:57;;;;;;;24.10;9.30;;;8.10;88.50;;;;;;5013462;28;20188;-77
2022/04/04 10:26:29;;;;;;;34.13;9.43;;;7.80;87.30;;;;;;5012998;28;20227;-78
2022/04/04 10:29:16;;;;;;;19.03;9.23;;;7.70;86.90;;;;;;5013583;28;20168;-76
2022/04/04 10:32:02;;;;;;;18.13;7.90;;;7.70;88.50;;;;;;5013507;28;20195;-77
2022/04/04 10:34:28;;;;;;;26.40;9.73;;;7.30;87.50;;;;;;4995353;28;20284;-75
2022/04/04 10:37:09;;;;;;;27.73;9.73;;;7.20;88.20;;;;;;5012913;28;20215;-79
2022/04/04 10:39:43;;;;;;;16.07;7.43;;;7.20;88.70;;;;;;5012213;28;20196;-74
2022/04/04 10:42:29;;;;;;;22.40;9.10;;;7.10;88.40;;;;;;5012312;28;20529;-80
2022/04/04 10:45:07;;;;;;;13.30;8.57;;;7.40;89.00;;;;;;5012624;28;20182;-78
2022/04/04 10:47:39;;;;;;;16.70;8.57;;;7.60;88.50;;;;;;5012482;28;20172;-78
2022/04/04 10:50:25;;;;;;;29.70;8.70;;;7.70;88.30;;;;;;5011293;28;20187;-77
2022/04/04 10:52:53;;;;;;;20.43;8.80;;;7.60;87.20;;;;;;5013300;28;20598;-76
2022/04/04 10:55:38;;;;;;;27.53;10.13;;;7.70;87.10;;;;;;5011148;28;20311;-76
2022/04/04 10:58:14;;;;;;;19.33;9.13;;;7.80;87.30;;;;;;5012187;28;20539;-78
2022/04/04 11:01:00;;;;;;;30.53;10.10;;;7.90;87.30;;;;;;5012758;28;20184;-77
2022/04/04 11:03:31;;;;;;;16.23;8.30;;;7.80;87.60;;;;;;5011379;28;20172;-78
2022/04/04 11:09:19;;;;;;;14.13;9.27;;;7.80;87.50;;;;;;5012899;28;20183;-78
2022/04/04 11:12:14;;;;;;;17.97;8.93;;;7.30;89.40;;;;;;5010231;28;20183;-77
2022/04/04 11:14:43;;;;;;;23.30;10.53;;;7.10;90.10;;;;;;5012345;28;20215;-78
2022/04/04 11:17:09;;;;;;;31.57;9.50;;;7.00;90.80;;;;;;5012670;28;20231;-78
2022/04/04 11:20:13;;;;;;;16.67;9.20;;;7.10;90.70;;;;;;5015705;28;20227;-77
2022/04/04 11:22:46;;;;;;;23.87;11.43;;;7.30;91.00;;;;;;5003210;28;20619;-78
2022/04/04 11:25:20;;;;;;;24.50;10.23;;;7.50;91.10;;;;;;5012732;28;20345;-77
2022/04/04 11:27:48;;;;;;;19.20;9.90;;;7.50;90.70;;;;;;5013036;28;20179;-77
2022/04/04 11:30:16;;;;;;;26.70;9.83;;;7.20;90.70;;;;;;5012493;28;20176;-77
2022/04/04 11:32:44;;;;;;;20.53;9.57;;;7.00;90.80;;;;;;5012168;28;20175;-77
2022/04/04 11:35:14;;;;;;;30.73;10.33;;;6.70;91.20;;;;;;4997541;28;20291;-77
2022/04/04 11:38:01;;;;;;;26.60;11.27;;;6.80;91.60;;;;;;5011948;28;20183;-77
2022/04/04 11:40:33;;;;;;;21.23;10.30;;;7.00;91.60;;;;;;5011650;28;20489;-78
2022/04/04 11:43:02;;;;;;;17.97;9.80;;;7.20;91.00;;;;;;5012006;28;20243;-78
2022/04/04 11:45:35;;;;;;;21.63;9.53;;;7.30;90.70;;;;;;5011697;28;20200;-78
2022/04/04 11:48:13;;;;;;;14.03;8.53;;;7.80;90.00;;;;;;5011974;28;20166;-79
2022/04/04 11:50:40;;;;;;;12.97;8.10;;;8.40;89.40;;;;;;5012540;28;20241;-77
2022/04/04 11:53:07;;;;;;;20.37;9.23;;;8.60;86.60;;;;;;5010657;28;20180;-78
2022/04/04 11:55:37;;;;;;;23.00;10.47;;;8.20;87.30;;;;;;5012005;28;20212;-76
2022/04/04 11:58:12;;;;;;;33.57;11.83;;;8.10;89.50;;;;;;5010726;28;20227;-76
2022/04/04 12:00:45;;;;;;;45.17;12.73;;;7.90;89.40;;;;;;5010824;28;20194;-77
2022/04/04 12:03:13;;;;;;;20.40;9.50;;;7.90;89.60;;;;;;5010800;28;20180;-77
2022/04/04 12:05:40;;;;;;;23.87;10.37;;;8.30;88.20;;;;;;5010896;28;20212;-76
2022/04/04 12:08:11;;;;;;;17.37;8.00;;;8.70;87.40;;;;;;5011229;28;20185;-77
2022/04/04 12:10:38;;;;;;;17.70;9.23;;;8.70;86.70;;;;;;5011471;28;20567;-77
2022/04/04 12:13:06;;;;;;;20.27;9.43;;;8.40;87.10;;;;;;5010789;28;20276;-76
2022/04/04 12:15:34;;;;;;;23.80;10.07;;;8.60;87.50;;;;;;5011646;28;20217;-78
2022/04/04 12:18:03;;;;;;;22.03;9.13;;;9.00;87.20;;;;;;5012862;28;20540;-75
2022/04/04 12:20:40;;;;;;;11.73;7.87;;;9.00;85.20;;;;;;5015437;28;20231;-78
2022/04/04 12:25:59;;;;;;;28.63;9.93;;;8.60;85.70;;;;;;5011878;28;20176;-77
2022/04/04 12:28:31;;;;;;;17.07;8.83;;;8.40;85.60;;;;;;5011430;28;20272;-78
2022/04/04 12:30:57;;;;;;;21.87;9.17;;;8.20;85.50;;;;;;4993921;28;20287;-77
2022/04/04 12:33:31;;;;;;;27.20;10.40;;;8.00;85.80;;;;;;5011550;28;20184;-76
2022/04/04 12:35:57;;;;;;;23.90;10.07;;;8.40;86.30;;;;;;5011395;28;20235;-77
2022/04/04 12:38:34;;;;;;;15.40;8.83;;;8.80;85.00;;;;;;5010985;28;20705;-77
2022/04/04 12:41:06;;;;;;;29.00;10.63;;;9.30;83.50;;;;;;5011746;28;20218;-77
2022/04/04 12:43:33;;;;;;;20.07;9.17;;;10.10;82.30;;;;;;5009769;28;20205;-78
2022/04/04 12:45:59;;;;;;;19.30;9.03;;;10.90;80.40;;;;;;5011489;28;20270;-78
2022/04/04 12:48:39;;;;;;;30.67;10.90;;;10.60;78.30;;;;;;5010989;28;20277;-80
2022/04/04 12:51:06;;;;;;;20.70;9.43;;;10.70;79.40;;;;;;5009467;28;20290;-78
2022/04/04 12:53:49;;;;;;;17.53;8.67;;;11.80;77.10;;;;;;5011103;28;20263;-78